Hot Springs, AR

10:08 PM CDT on October 22, 2014 (GMT -0500)
Hot Springs Convention Center | Change Station
CLOSE
Current Station
Personal Weather Station
Location: Hot Springs National Park, AR
Elevation: 623 ft
Nearby Weather Stations

Elev 623 ft 34.51 °N, 93.05 °W | Updated 2 minutes ago

Clear
Clear
56.0 °F
Feels Like 56.0 °F
N
0.0
Wind Variable Wind from WNW
Gusts 1.0 mph

Today
High -- | Low -- °F
--% Chance of Precip.
Yesterday
High -- | Low -- °F
Precip. -- in
7:23 AM 6:29 PM
Waning Crescent, 1% visible
Pressure 30.19 in
Visibility 10.0 miles
Clouds Clear
Dew Point 51 °F
Humidity 82%
Rainfall 0.00 in
Snow Depth Not available.
UV 0 out of 12
Pollen 4.00 out of 12
Air Quality Not available.
Flu Activity Sporadic
METAR KHOT 230253Z AUTO 00000KT 10SM CLR 12/09 A3020 RMK AO2 SLP224 T01170094 51017

More Conditions Fewer Conditions

Pressure 30.19 in
Visibility 10.0 miles
Clouds Clear
Dew Point 51 °F
Humidity 82%
Rainfall 0.00 in
Snow Depth Not available.
UV 0 out of 12
Pollen 4.00 out of 12
Air Quality Not available.
Flu Activity Sporadic
METAR KHOT 230253Z AUTO 00000KT 10SM CLR 12/09 A3020 RMK AO2 SLP224 T01170094 51017

More Conditions Fewer Conditions

10-Day Weather Forecast

Almanac

Astronomy

Oct. 22, 2014 Rise Set
Actual Time 7:23 AM CDT 6:29 PM CDT
Civil Twilight 6:57 AM CDT 6:54 PM CDT
Nautical Twilight 6:28 AM CDT 7:24 PM CDT
Astronomical Twilight 5:59 AM CDT 7:53 PM CDT
Moon 6:08 AM CDT (10/22) 5:54 PM CDT (10/22)
Length of Visible Light 11h 56m
Length of Day
11h 05m
Tomorrow will be 2m 1s shorter.
Waning Crescent, 1% of the Moon is Illuminated
Today
Waning Crescent
Oct 23
New
Oct 30
First Quarter
Nov 6
Full
Nov 14
Last Quarter

Today's Extremes

State Highs State Lows

Community

WunderPhotos

Upload Photos

1,764,121 photos uploaded!

Nearby

Snow Depth

Station Depth Elevation
No new snow has been reported.

Earthquake Activity

City Distance Mag. Time & Date
No recent earthquake activity has been reported nearby.
Minimum magnitude displayed is 2.5.

Coastal Water Temperatures

Place Temperature
No Stations Reporting

Nearby Weather Stations